Last 24 Hours

Pinyon

10 Minute Data | America/Los_Angeles
as of 5/8/26 7:51 PM PDT
Date & Time Temp (°F) Dew Pt (°F) RH (%) Wind Spd (mph) Wind Dir (°) Wind Gust (mph) Wind Gst Dir (°) Daily Max Temp (°F) Daily Min Temp (°F)
5/8/26 - 1950 69.8 45.7 42 19.5 NNW | 329 30.6 NNW | 328 82.7 67.1
5/8/26 - 1940 70.3 43.3 38 18.9 NNW | 329 30.0 NW | 321 82.7 67.1
5/8/26 - 1930 70.9 42.5 36 17.7 NNW | 328 27.6 NW | 322 82.7 67.1
5/8/26 - 1920 71.8 42.5 35 17.3 NNW | 330 25.8 NNW | 334 82.7 67.1
5/8/26 - 1910 72.6 42.5 34 19.2 NNW | 330 28.5 NNW | 341 82.7 67.1
5/8/26 - 1900 73.4 42.6 33 18.7 NNW | 332 26.4 NNW | 336 82.7 67.1
5/8/26 - 1850 74.2 42.8 32 18.1 NNW | 330 26.2 NNW | 330 82.7 67.1
5/8/26 - 1840 74.7 42.5 31 19.0 NNW | 335 27.9 NNW | 342 82.7 67.1
5/8/26 - 1830 75.2 42.3 31 19.7 NNW | 332 27.7 N | 350 82.7 67.1
5/8/26 - 1820 76.0 41.9 29 18.4 NNW | 333 25.6 N | 349 82.7 67.1
5/8/26 - 1810 76.5 42.0 29 18.6 NNW | 332 26.6 NNW | 337 82.7 67.1
5/8/26 - 1800 76.8 42.0 29 18.9 NNW | 330 28.2 NNW | 331 82.7 67.1
5/8/26 - 1750 77.4 42.0 28 18.5 NNW | 332 25.9 NW | 325 82.7 67.1
5/8/26 - 1740 77.7 41.3 27 18.9 NNW | 338 27.4 NNW | 336 82.7 67.1
5/8/26 - 1730 78.1 40.1 26 19.5 NNW | 340 28.0 NNW | 340 82.7 67.1
5/8/26 - 1720 78.5 39.5 25 19.8 NNW | 340 27.2 NNW | 345 82.7 67.1
5/8/26 - 1710 79.0 39.5 24 18.6 NNW | 335 30.3 NNW | 330 82.7 67.1
5/8/26 - 1700 79.3 39.3 24 18.6 NNW | 335 27.1 N | 353 82.7 67.1
5/8/26 - 1650 79.6 39.0 23 17.2 NNW | 339 25.7 N | 0 82.7 67.1
5/8/26 - 1640 79.5 38.6 23 17.9 NNW | 339 26.7 NNW | 344 82.7 67.1
5/8/26 - 1630 80.0 37.0 21 17.2 NNW | 340 26.3 NNW | 337 82.7 67.1
5/8/26 - 1620 80.5 38.2 22 17.3 NNW | 341 25.7 NNW | 346 82.7 67.1
5/8/26 - 1610 80.3 37.8 22 17.8 NNW | 334 25.6 NNW | 334 82.7 67.1
5/8/26 - 1600 80.1 36.5 21 17.9 NNW | 333 26.4 NNW | 343 82.7 67.1
5/8/26 - 1550 80.7 36.4 20 19.3 NNW | 331 29.3 NNW | 341 82.7 67.1
5/8/26 - 1540 80.8 32.7 18 15.1 NNW | 347 24.9 N | 353 82.7 67.1
5/8/26 - 1530 81.5 32.4 17 15.2 NNW | 330 25.6 NNW | 348 82.7 67.1
5/8/26 - 1520 81.4 31.6 16 14.2 NNW | 345 25.5 NNW | 346 82.7 67.1
5/8/26 - 1510 81.2 29.4 15 15.6 N | 355 22.8 N | 353 82.7 67.1
5/8/26 - 1500 81.8 30.4 15 13.1 NNW | 336 24.3 NNW | 346 82.7 67.1
5/8/26 - 1450 81.3 27.6 14 14.6 NNW | 338 22.6 NW | 319 82.7 67.1
5/8/26 - 1440 81.5 28.8 15 14.2 NNW | 346 24.6 N | 354 82.7 67.1
5/8/26 - 1430 80.9 29.6 15 14.7 N | 350 23.4 NW | 325 82.7 67.1
5/8/26 - 1420 80.8 29.2 15 14.5 NNW | 341 23.5 NNW | 335 82.7 67.1
5/8/26 - 1410 81.7 30.4 15 14.4 N | 350 23.2 NNW | 345 82.7 67.1
5/8/26 - 1400 81.2 32.3 17 14.5 NNW | 341 27.1 NNW | 328 82.6 67.1
5/8/26 - 1350 81.1 32.3 17 14.2 NNW | 334 22.6 NNW | 334 82.3 67.1
5/8/26 - 1340 80.8 32.9 18 15.7 N | 349 25.2 N | 352 81.8 67.1
5/8/26 - 1330 80.8 33.3 18 14.5 NNW | 345 24.2 NNW | 341 81.8 67.1
5/8/26 - 1320 81.2 30.5 16 14.2 N | 358 28.9 NNW | 336 81.8 67.1
5/8/26 - 1310 80.9 30.0 16 14.3 NNW | 338 23.3 NNW | 336 81.7 67.1
5/8/26 - 1300 81.0 30.6 16 15.7 NNW | 334 24.1 NNW | 337 81.7 67.1
5/8/26 - 1250 80.4 27.8 15 13.7 N | 349 22.8 N | 349 81.6 67.1
5/8/26 - 1240 80.6 29.6 16 17.5 NNW | 335 30.7 NW | 318 81.6 67.1
5/8/26 - 1230 80.7 28.6 15 15.1 NNW | 333 25.1 NNW | 327 81.6 67.1
5/8/26 - 1220 80.5 27.9 15 16.1 NNW | 332 25.3 NNW | 329 81.6 67.1
5/8/26 - 1210 80.7 27.6 14 15.8 NNW | 331 26.7 NNW | 328 81.6 67.1
5/8/26 - 1200 80.3 26.7 14 15.8 NNW | 330 23.2 NW | 304 81.1 67.1
5/8/26 - 1150 80.3 25.5 13 16.7 NNW | 336 26.2 NNW | 340 81.1 67.1
5/8/26 - 1140 80.1 24.9 13 16.7 NNW | 337 27.3 NNW | 337 81.0 67.1
5/8/26 - 1130 80.0 25.8 14 16.0 NNW | 328 24.6 NNW | 334 81.0 67.1
5/8/26 - 1120 80.1 26.3 14 15.8 NW | 325 25.1 NW | 324 81.0 67.1
5/8/26 - 1110 79.6 27.6 15 17.6 NW | 326 28.1 NNW | 328 81.0 67.1
5/8/26 - 1100 80.0 27.6 15 13.8 NNW | 335 24.6 NNW | 340 81.0 67.1
5/8/26 - 1050 79.4 27.9 15 15.0 N | 352 22.0 NNW | 333 80.2 67.1
5/8/26 - 1040 79.1 27.3 15 13.4 NNW | 338 21.9 NW | 325 79.8 67.1
5/8/26 - 1030 78.9 27.8 15 14.6 NNW | 343 22.1 NNW | 335 79.4 67.1
5/8/26 - 1020 78.7 27.6 15 15.5 NNW | 333 24.4 NW | 311 79.4 67.1
5/8/26 - 1010 78.1 27.7 16 16.5 NNW | 337 23.0 NNW | 339 78.8 67.1
5/8/26 - 1000 77.9 27.8 16 16.5 NNW | 338 24.6 N | 354 78.8 67.1
5/8/26 - 0950 77.4 27.8 16 16.8 NNW | 336 23.9 NNW | 336 78.8 67.1
5/8/26 - 0940 77.5 27.9 16 15.9 NNW | 333 23.2 NNW | 335 78.8 67.1
5/8/26 - 0930 77.8 27.2 15 15.0 NNW | 343 21.8 NNW | 333 78.8 67.1
5/8/26 - 0920 77.9 27.6 16 11.7 NNW | 344 18.0 NW | 325 78.8 67.1
5/8/26 - 0910 77.4 27.1 16 12.4 NNW | 347 20.5 N | 3 77.8 67.1
5/8/26 - 0900 76.8 26.6 16 10.2 N | 354 18.0 NW | 322 77.3 67.1
5/8/26 - 0850 76.1 26.7 16 10.0 N | 350 17.0 NNW | 347 76.6 67.1
5/8/26 - 0840 75.9 26.7 16 13.0 NNW | 344 19.1 NNE | 14 76.2 67.1
5/8/26 - 0830 75.6 26.9 16 11.7 NNW | 341 20.5 N | 350 75.7 67.1
5/8/26 - 0820 75.0 27.5 17 9.8 NNW | 338 14.7 NNW | 334 75.3 67.1
5/8/26 - 0810 74.1 28.4 18 8.7 NNW | 331 15.7 NNW | 335 75.0 67.1
5/8/26 - 0800 73.6 28.4 19 9.5 NW | 322 16.4 WNW | 301 73.8 67.1
5/8/26 - 0750 73.0 28.0 19 10.4 NNW | 330 16.5 NNW | 331 73.2 67.1
5/8/26 - 0740 72.4 27.7 19 11.4 NNW | 334 21.0 NW | 325 73.0 67.1
5/8/26 - 0730 71.7 28.6 20 10.2 NNW | 332 15.3 NNW | 339 71.9 67.1
5/8/26 - 0720 71.3 28.2 20 11.2 NNW | 342 17.5 NNW | 337 71.7 67.1
5/8/26 - 0710 70.4 28.6 21 10.5 NNW | 339 15.2 NNW | 341 70.8 67.1
5/8/26 - 0700 69.6 28.9 22 11.1 NNW | 331 16.7 NW | 323 69.8 67.1
5/8/26 - 0650 69.2 28.9 22 11.4 NNW | 329 16.6 NNW | 332 69.6 67.1
5/8/26 - 0640 68.6 28.8 22 12.8 NNW | 328 20.1 NNW | 329 68.8 67.1
5/8/26 - 0630 68.4 28.5 22 13.4 NNW | 328 20.1 NNW | 331 68.5 67.1
5/8/26 - 0620 68.3 28.2 22 13.7 NW | 324 19.1 NW | 318 68.5 67.1
5/8/26 - 0610 68.0 28.1 22 12.2 NNW | 331 16.6 NNW | 333 68.4 67.1
5/8/26 - 0600 68.2 28.2 22 12.2 NNW | 328 16.9 NW | 324 68.2 67.1
5/8/26 - 0550 67.9 28.6 23 11.0 NNW | 330 18.0 NW | 326 68.2 67.1
5/8/26 - 0540 68.1 28.9 23 11.5 NW | 326 16.7 NW | 324 68.2 67.1
5/8/26 - 0530 67.8 29.3 24 10.0 NNW | 329 14.3 NNW | 327 68.2 67.1
5/8/26 - 0520 67.8 29.6 24 9.9 NNW | 329 12.9 NNW | 338 68.2 67.1
5/8/26 - 0510 67.8 29.9 24 9.9 NNW | 331 13.4 NW | 326 68.2 67.1
5/8/26 - 0500 67.7 30.4 25 10.4 NW | 325 15.3 NW | 318 68.2 67.1
5/8/26 - 0450 67.6 30.6 25 10.9 NW | 324 14.3 NNW | 328 68.2 67.1
5/8/26 - 0440 67.9 30.8 25 10.8 NW | 323 15.6 NW | 322 68.2 67.1
5/8/26 - 0430 67.7 30.8 25 10.0 NW | 326 13.4 NW | 325 68.2 67.1
5/8/26 - 0420 67.8 31.1 25 10.3 NNW | 329 15.2 NNW | 335 68.2 67.1
5/8/26 - 0410 67.8 31.3 26 10.2 NNW | 328 14.3 NNW | 332 68.2 67.1
5/8/26 - 0400 67.9 31.6 26 11.2 NW | 325 15.7 NNW | 328 68.2 67.1
5/8/26 - 0350 67.9 32.0 26 10.9 NW | 326 16.1 NW | 320 68.2 67.1
5/8/26 - 0340 67.8 32.2 27 10.3 NW | 324 15.6 NW | 322 68.2 67.1
5/8/26 - 0330 67.5 32.4 27 9.4 NW | 325 13.2 NW | 314 68.2 67.1
5/8/26 - 0320 67.7 33.0 28 9.8 NW | 325 15.6 NW | 319 68.2 67.1
5/8/26 - 0310 67.7 33.2 28 10.1 NW | 326 14.5 NNW | 330 68.2 67.1
5/8/26 - 0300 67.9 33.3 28 11.1 NW | 325 15.9 NW | 322 68.2 67.1
5/8/26 - 0250 67.9 33.5 28 9.9 NW | 326 13.9 NW | 323 68.2 67.1
5/8/26 - 0240 68.0 33.9 28 10.7 NW | 323 15.1 NNW | 332 68.2 67.1
5/8/26 - 0230 67.9 33.9 28 11.0 NW | 323 15.6 NW | 326 68.1 67.1
5/8/26 - 0220 68.0 34.1 28 11.5 NW | 324 16.2 NW | 323 68.1 67.1
5/8/26 - 0210 67.9 34.6 29 11.6 NW | 324 16.7 NNW | 334 68.1 67.1
5/8/26 - 0200 67.9 35.4 30 12.7 NNW | 327 18.0 NNW | 337 68.1 67.1
5/8/26 - 0150 67.7 35.8 31 12.1 NW | 325 19.5 NW | 318 68.1 67.1
5/8/26 - 0140 67.8 36.0 31 12.0 NW | 326 17.7 NW | 326 68.1 67.1
5/8/26 - 0130 68.0 35.6 30 13.3 NNW | 328 19.5 NNW | 336 68.1 67.1
5/8/26 - 0120 67.7 35.7 31 12.1 NNW | 327 17.5 NNW | 337 67.9 67.1
5/8/26 - 0110 67.3 36.0 31 11.6 NNW | 327 18.6 NW | 323 67.5 67.1
5/8/26 - 0100 67.2 36.3 32 11.6 NW | 325 16.8 NNW | 330 80.6 63.4
5/8/26 - 0050 67.3 36.2 32 11.7 NW | 325 17.8 NNW | 347 80.6 63.4
5/8/26 - 0040 67.5 35.8 31 11.6 NW | 325 16.8 NNW | 336 80.6 63.4
5/8/26 - 0030 67.5 35.4 30 11.8 NW | 326 20.8 NW | 311 80.6 63.4
5/8/26 - 0020 67.6 34.6 29 13.4 NW | 323 20.2 NW | 318 80.6 63.4
5/8/26 - 0010 67.6 33.6 28 13.7 NW | 326 20.1 NNW | 339 80.6 63.4
5/8/26 - 0000 67.9 33.2 27 12.9 NW | 325 19.0 NNW | 334 80.6 63.4
5/7/26 - 2350 68.1 32.5 27 12.6 NW | 326 19.1 NW | 322 80.6 63.4
5/7/26 - 2340 68.3 31.5 25 12.8 NW | 324 19.2 NW | 317 80.6 63.4
5/7/26 - 2330 68.2 30.8 25 12.6 NW | 326 19.5 NW | 318 80.6 63.4
5/7/26 - 2320 68.2 30.0 24 11.9 NNW | 333 17.1 NNW | 327 80.6 63.4
5/7/26 - 2310 68.7 29.7 23 12.8 NNW | 332 19.6 NNW | 341 80.6 63.4
5/7/26 - 2300 68.8 29.6 23 12.5 NNW | 335 17.1 NNW | 346 80.6 63.4
5/7/26 - 2250 68.0 30.0 24 12.5 NW | 322 19.7 NNW | 345 80.6 63.4
5/7/26 - 2240 68.1 29.6 24 11.2 NW | 324 16.2 NNW | 343 80.6 63.4
5/7/26 - 2230 68.0 29.8 24 11.2 NW | 323 15.6 NW | 321 80.6 63.4
5/7/26 - 2220 68.0 30.2 24 10.8 NW | 320 16.1 NNW | 335 80.6 63.4
5/7/26 - 2210 68.3 30.5 24 11.5 NW | 322 16.7 NW | 306 80.6 63.4
5/7/26 - 2200 68.6 30.7 24 13.5 NNW | 328 20.0 NNW | 333 80.6 63.4
5/7/26 - 2150 68.4 31.1 25 13.1 NW | 326 19.1 NW | 319 80.6 63.4
5/7/26 - 2140 68.7 31.2 25 13.9 NNW | 329 20.4 NW | 326 80.6 63.4
5/7/26 - 2130 68.9 31.2 25 15.1 NNW | 332 20.3 NNW | 328 80.6 63.4
5/7/26 - 2120 68.6 31.6 25 13.6 NNW | 327 20.7 NW | 321 80.6 63.4
5/7/26 - 2110 68.3 33.0 27 12.0 NNW | 328 18.0 NNW | 339 80.6 63.4
5/7/26 - 2100 68.6 33.3 27 12.8 NW | 318 21.5 NW | 313 80.6 63.4
5/7/26 - 2050 68.7 32.0 26 12.6 NW | 320 20.6 NW | 320 80.6 63.4
5/7/26 - 2040 68.9 32.8 26 11.9 NNW | 331 18.2 N | 354 80.6 63.4
5/7/26 - 2030 69.2 34.2 27 13.0 NNW | 342 18.4 N | 0 80.6 63.4
5/7/26 - 2020 69.5 34.7 28 14.0 NNW | 345 19.6 N | 0 80.6 63.4
5/7/26 - 2010 69.3 34.2 27 11.7 NNW | 338 20.6 N | 10 80.6 63.4
5/7/26 - 2000 69.5 34.9 28 10.5 NNW | 329 16.3 NNW | 327 80.6 63.4
5/7/26 - 1950 69.6 35.7 29 9.2 NNW | 335 14.5 NNW | 332 80.6 63.4
Max 81.8 45.7 42 19.8 - 30.7 - 82.7 67.1
Avg 73.4 32.3 23 13.7 - 21.0 - - -
Min 67.2 24.9 13 8.7 - 12.9 - 67.5 63.4